Time;durP1;ratioP1;P1;durP2;ratioP2;P2;SDS_P1;SDS_P2;PMS_P1;PMS_P2;Temp;Humidity;BMP_temperature;BMP_pressure;BME280_temperature;BME280_humidity;BME280_pressure;Samples;Min_cycle;Max_cycle;Signal;HPM_P1;HPM_P2
2023/07/04 00:00:59;;;;;;;;;7.50;7.50;;;;;-148.87;36.99;48333.78;5058600;28;45490;-68
2023/07/04 00:03:27;;;;;;;;;7.50;6.75;;;;;-148.87;36.93;48251.78;5060343;28;45476;-68
2023/07/04 00:05:54;;;;;;;;;5.25;5.25;;;;;-148.87;36.71;48293.78;5061613;28;45477;-68
2023/07/04 00:08:21;;;;;;;;;8.25;7.75;;;;;-148.87;36.79;48241.78;5059558;28;45350;-68
2023/07/04 00:10:47;;;;;;;;;7.00;5.00;;;;;-148.87;36.76;48271.78;5061205;28;45472;-68
2023/07/04 00:13:13;;;;;;;;;7.25;5.00;;;;;-148.87;37.11;48373.75;5045700;28;45342;-68
2023/07/04 00:15:50;;;;;;;;;4.75;3.50;;;;;-148.87;36.88;48217.78;5043253;28;46829;-68
2023/07/04 00:18:20;;;;;;;;;5.00;4.00;;;;;-148.87;36.91;48269.78;5061637;28;46197;-68
2023/07/04 00:20:45;;;;;;;;;5.25;4.50;;;;;-148.87;37.12;48301.78;5062202;28;45632;-69
2023/07/04 00:23:10;;;;;;;;;7.00;6.00;;;;;-148.87;37.21;48455.75;5063256;28;45311;-68
2023/07/04 00:25:36;;;;;;;;;7.75;6.00;;;;;-148.87;37.28;48601.72;5059357;28;45417;-69
2023/07/04 00:28:05;;;;;;;;;7.00;6.25;;;;;-148.87;37.26;48595.72;5061182;28;45534;-69
2023/07/04 00:30:31;;;;;;;;;7.25;6.00;;;;;-148.87;37.47;48785.72;5060939;28;45311;-68
2023/07/04 00:32:58;;;;;;;;;8.50;8.00;;;;;-148.87;37.61;48745.72;5061530;28;45352;-69
2023/07/04 00:35:23;;;;;;;;;8.75;8.50;;;;;-148.87;37.42;48653.72;5061548;28;45212;-68
2023/07/04 00:37:48;;;;;;;;;7.00;6.50;;;;;-148.87;37.80;48793.72;5061119;28;46043;-69
2023/07/04 00:40:15;;;;;;;;;8.50;7.00;;;;;-148.87;37.70;48893.69;5065654;28;50830;-71
2023/07/04 00:42:41;;;;;;;;;5.75;5.75;;;;;-148.87;37.78;48907.69;5060132;28;45306;-71
2023/07/04 00:45:21;;;;;;;;;6.00;5.00;;;;;-148.87;38.16;49017.69;5059330;28;45446;-68
2023/07/04 00:47:53;;;;;;;;;8.00;6.00;;;;;-148.87;38.00;49041.69;5060897;28;45623;-68
2023/07/04 00:50:29;;;;;;;;;6.75;5.50;;;;;-148.87;38.02;49053.69;5041912;28;44901;-69
2023/07/04 00:52:59;;;;;;;;;3.25;3.25;;;;;-148.87;37.98;49125.69;5061000;28;44670;-69
2023/07/04 00:55:25;;;;;;;;;5.50;5.00;;;;;-148.87;38.20;49113.69;5061889;28;45568;-69
2023/07/04 00:57:50;;;;;;;;;4.25;3.00;;;;;-148.87;38.20;49129.69;5042156;28;45980;-69
2023/07/04 01:00:19;;;;;;;;;5.00;5.00;;;;;-148.87;38.22;49087.69;5042049;28;45797;-69
2023/07/04 01:02:49;;;;;;;;;3.25;3.25;;;;;-148.87;38.26;49109.69;5040951;28;45379;-69
2023/07/04 01:05:23;;;;;;;;;4.00;3.25;;;;;-148.87;37.97;49065.69;5068465;28;46802;-69
2023/07/04 01:07:58;;;;;;;;;4.00;3.50;;;;;-148.87;38.10;49059.69;5067183;28;45582;-69
2023/07/04 01:10:33;;;;;;;;;4.75;4.00;;;;;-148.87;38.12;49027.69;5067297;28;44587;-69
2023/07/04 01:13:00;;;;;;;;;4.75;3.75;;;;;-148.87;37.97;48995.69;5056311;28;42811;-69
2023/07/04 01:15:30;;;;;;;;;3.75;3.25;;;;;-148.87;37.95;49015.69;5073603;28;44469;-69
2023/07/04 01:17:56;;;;;;;;;3.00;3.00;;;;;-148.87;38.03;49033.69;5042828;28;48184;-69
2023/07/04 01:20:23;;;;;;;;;4.00;3.00;;;;;-148.87;38.23;49039.69;5060257;28;45232;-69
2023/07/04 01:22:48;;;;;;;;;5.50;4.00;;;;;-148.87;38.11;48989.69;5059439;28;45293;-69
2023/07/04 01:25:20;;;;;;;;;4.00;4.00;;;;;-148.87;37.95;48987.69;5053929;28;45357;-69
2023/07/04 01:27:49;;;;;;;;;3.75;3.75;;;;;-148.87;38.28;49067.69;5060125;28;46094;-69
2023/07/04 01:30:16;;;;;;;;;5.00;4.00;;;;;-148.87;38.15;48997.69;5059761;28;45232;-69
2023/07/04 01:32:42;;;;;;;;;6.25;4.00;;;;;-148.87;38.08;49053.69;5050440;28;46124;-69
2023/07/04 01:35:11;;;;;;;;;4.00;3.50;;;;;-148.87;38.05;49037.69;5060257;28;45614;-69
2023/07/04 01:37:36;;;;;;;;;4.00;3.00;;;;;-148.87;38.30;49031.69;5057795;28;45410;-69
2023/07/04 01:40:03;;;;;;;;;6.75;5.75;;;;;-148.87;38.03;49041.69;5060035;28;45155;-69
2023/07/04 01:42:31;;;;;;;;;5.75;4.00;;;;;-148.87;38.33;49097.69;5056041;28;45585;-69
2023/07/04 01:45:05;;;;;;;;;4.50;4.00;;;;;-148.87;38.44;49123.69;5060233;28;45332;-69
2023/07/04 01:47:32;;;;;;;;;4.25;3.50;;;;;-148.87;38.30;49125.69;5034911;28;47680;-69
2023/07/04 01:49:58;;;;;;;;;5.25;4.00;;;;;-148.87;38.72;49183.69;5041530;28;45371;-69
2023/07/04 01:52:24;;;;;;;;;5.75;4.50;;;;;-148.87;38.52;49217.69;5040521;28;45613;-69
2023/07/04 01:54:50;;;;;;;;;6.00;5.25;;;;;-148.87;38.96;49333.69;5057596;28;46003;-69
2023/07/04 01:57:15;;;;;;;;;6.00;5.00;;;;;-148.87;38.80;49361.69;5060175;28;45209;-69
2023/07/04 01:59:40;;;;;;;;;5.00;4.75;;;;;-148.87;39.07;49371.69;5041457;28;45677;-69
2023/07/04 02:02:06;;;;;;;;;5.50;5.00;;;;;-148.87;39.04;49399.72;5044126;28;45616;-69
2023/07/04 02:04:31;;;;;;;;;4.00;4.00;;;;;-148.87;39.24;49449.72;5059827;28;45706;-69
2023/07/04 02:06:56;;;;;;;;;6.00;5.00;;;;;-148.87;39.47;49507.72;5058914;28;45697;-69
2023/07/04 02:09:24;;;;;;;;;8.00;5.25;;;;;-148.87;39.52;49549.72;5059320;28;45450;-69
2023/07/04 02:11:49;;;;;;;;;3.00;3.00;;;;;-148.87;39.59;49591.72;5060162;28;45449;-69
2023/07/04 02:14:16;;;;;;;;;5.25;5.00;;;;;-148.87;39.82;49633.72;5058805;28;45490;-69
2023/07/04 02:16:41;;;;;;;;;4.00;3.25;;;;;-148.87;39.62;49629.72;5041862;28;48357;-69
2023/07/04 02:19:07;;;;;;;;;6.25;5.50;;;;;-148.87;39.94;49693.75;5063638;27;45496;-69
2023/07/04 02:21:34;;;;;;;;;8.00;5.75;;;;;-148.87;39.84;49675.72;5058686;28;45315;-69
2023/07/04 02:24:00;;;;;;;;;5.25;4.00;;;;;-148.87;39.97;49679.72;5058180;28;45263;-69
2023/07/04 02:26:25;;;;;;;;;5.50;5.50;;;;;-148.87;40.10;49687.75;5041457;28;47139;-69
2023/07/04 02:28:50;;;;;;;;;5.25;4.75;;;;;-148.87;40.09;49693.75;5055083;28;45396;-69
2023/07/04 02:31:16;;;;;;;;;5.25;5.00;;;;;-148.87;40.21;49693.75;5053667;28;45505;-69
2023/07/04 02:33:41;;;;;;;;;7.00;5.00;;;;;-148.87;40.75;49745.75;5051631;28;48979;-70
2023/07/04 02:36:11;;;;;;;;;4.75;4.00;;;;;-148.87;40.63;49743.75;5059526;28;46240;-69
2023/07/04 02:38:37;;;;;;;;;3.50;3.00;;;;;-148.87;40.79;49771.75;5059130;28;45612;-69
2023/07/04 02:41:04;;;;;;;;;7.50;5.25;;;;;-148.87;41.00;49769.75;5055750;28;45256;-69
2023/07/04 02:43:29;;;;;;;;;5.75;5.25;;;;;-148.87;40.88;49761.75;5041088;28;45559;-69
2023/07/04 02:45:55;;;;;;;;;5.00;3.75;;;;;-148.87;40.81;49737.75;5051954;28;45361;-69
2023/07/04 02:48:20;;;;;;;;;4.25;3.00;;;;;-148.87;40.94;49765.75;5058052;28;45200;-69
2023/07/04 02:50:46;;;;;;;;;3.50;3.50;;;;;-148.87;41.29;49769.75;5067499;28;45453;-69
2023/07/04 02:53:11;;;;;;;;;6.00;4.50;;;;;-148.87;40.99;49755.75;5057939;28;45398;-69
2023/07/04 02:55:36;;;;;;;;;5.25;4.25;;;;;-148.87;41.33;49773.75;5057888;28;45548;-68
2023/07/04 02:58:02;;;;;;;;;4.75;4.00;;;;;-148.87;41.23;49761.75;5047529;28;45286;-69
2023/07/04 03:00:27;;;;;;;;;6.00;5.00;;;;;-148.87;41.26;49755.75;5040642;28;45425;-69
2023/07/04 03:02:52;;;;;;;;;3.25;3.00;;;;;-148.87;41.33;49761.75;5059102;28;45628;-69
2023/07/04 03:05:18;;;;;;;;;5.00;5.00;;;;;-148.87;41.43;49755.75;5058179;28;45987;-69
2023/07/04 03:07:43;;;;;;;;;5.25;4.50;;;;;-148.87;41.60;49755.75;5057739;28;45399;-69
2023/07/04 03:10:09;;;;;;;;;5.25;4.00;;;;;-148.87;41.56;49745.75;5059310;28;45347;-69
2023/07/04 03:12:35;;;;;;;;;7.50;6.00;;;;;-148.87;41.73;49749.75;5031059;28;45787;-69
2023/07/04 03:15:00;;;;;;;;;6.25;6.00;;;;;-148.87;41.58;49749.75;5056472;28;46272;-69
2023/07/04 03:17:25;;;;;;;;;7.00;6.00;;;;;-148.87;41.87;49731.75;5058688;28;45316;-68
2023/07/04 03:19:51;;;;;;;;;7.00;5.00;;;;;-148.87;42.03;49717.75;5040282;28;45371;-69
2023/07/04 03:22:18;;;;;;;;;6.00;4.00;;;;;-148.87;41.87;49723.75;5040035;28;53887;-68
2023/07/04 03:24:43;;;;;;;;;5.50;5.00;;;;;-148.87;41.72;49733.75;5058650;28;45342;-68
2023/07/04 03:27:09;;;;;;;;;6.50;5.00;;;;;-148.87;42.03;49717.75;5039157;28;48478;-68
2023/07/04 03:29:34;;;;;;;;;5.00;5.00;;;;;-148.87;41.98;49725.75;5057671;28;45478;-68
2023/07/04 03:31:59;;;;;;;;;6.00;4.00;;;;;-148.87;41.71;49731.75;5058883;28;45418;-68
2023/07/04 03:34:25;;;;;;;;;5.50;4.00;;;;;-148.87;41.72;49727.75;5058464;28;47200;-68
2023/07/04 03:36:50;;;;;;;;;7.25;5.00;;;;;-148.87;41.80;49745.75;5058213;28;45833;-68
2023/07/04 03:39:16;;;;;;;;;4.50;4.00;;;;;-148.87;41.82;49731.75;5057184;28;45268;-68
2023/07/04 03:41:42;;;;;;;;;7.50;5.75;;;;;-148.87;41.68;49739.75;5038498;28;46560;-68
2023/07/04 03:44:07;;;;;;;;;6.25;4.75;;;;;-148.87;41.61;49739.75;5058340;28;45324;-69
2023/07/04 03:46:32;;;;;;;;;7.50;6.50;;;;;-148.87;41.58;49737.75;5058262;28;45320;-68
2023/07/04 03:48:58;;;;;;;;;10.25;6.00;;;;;-148.87;41.50;49733.75;5056974;28;45453;-68
2023/07/04 03:51:24;;;;;;;;;4.00;4.00;;;;;-148.87;41.54;49741.75;5057203;28;45245;-68
2023/07/04 03:53:49;;;;;;;;;5.00;5.00;;;;;-148.87;41.63;49733.75;5057363;28;46369;-68
2023/07/04 03:56:15;;;;;;;;;5.00;5.00;;;;;-148.87;41.58;49739.75;5059153;28;45335;-68
2023/07/04 03:58:41;;;;;;;;;6.00;4.00;;;;;-148.87;41.62;49737.75;5060214;28;45492;-68
2023/07/04 04:01:06;;;;;;;;;6.25;5.25;;;;;-148.87;41.45;49751.75;5057039;28;45446;-68
2023/07/04 04:03:37;;;;;;;;;6.00;5.00;;;;;-148.87;41.60;49745.75;5061598;28;45287;-68
2023/07/04 04:06:06;;;;;;;;;5.00;4.00;;;;;-148.87;41.45;49747.75;5061054;28;46462;-68
2023/07/04 04:08:32;;;;;;;;;5.25;4.50;;;;;-148.87;41.49;49747.75;5059433;28;45452;-68
2023/07/04 04:10:57;;;;;;;;;8.25;5.50;;;;;-148.87;41.51;49735.75;5060830;28;45364;-68
2023/07/04 04:13:24;;;;;;;;;6.00;4.25;;;;;-148.87;41.53;49731.75;5061276;28;45762;-68
2023/07/04 04:15:49;;;;;;;;;6.00;5.00;;;;;-148.87;41.63;49737.75;5061487;28;45583;-68
2023/07/04 04:18:15;;;;;;;;;8.75;5.00;;;;;-148.87;41.38;49729.75;5061969;28;45205;-68
2023/07/04 04:20:40;;;;;;;;;5.75;5.50;;;;;-148.87;41.55;49731.75;5058444;28;45363;-68
2023/07/04 04:23:05;;;;;;;;;3.75;3.75;;;;;-148.87;41.58;49735.75;5059602;28;49883;-68
2023/07/04 04:25:37;;;;;;;;;7.00;6.00;;;;;-148.87;41.62;49733.75;5061217;28;45253;-69
2023/07/04 04:28:03;;;;;;;;;5.00;5.00;;;;;-148.87;41.53;49727.75;5053176;28;45320;-68
2023/07/04 04:30:28;;;;;;;;;5.25;5.25;;;;;-148.87;41.35;49727.75;5055612;28;45401;-68
2023/07/04 04:32:54;;;;;;;;;6.50;4.75;;;;;-148.87;41.41;49715.75;5059676;28;45440;-69
2023/07/04 04:35:19;;;;;;;;;5.25;5.00;;;;;-148.87;41.26;49725.75;5036217;28;45496;-69
2023/07/04 04:37:45;;;;;;;;;4.75;4.75;;;;;-148.87;41.28;49719.75;5059846;28;45401;-68
2023/07/04 04:40:11;;;;;;;;;7.00;6.75;;;;;-148.87;41.00;49701.75;5061130;28;45232;-68
2023/07/04 04:42:36;;;;;;;;;6.50;5.00;;;;;-148.87;40.98;49697.75;5035617;28;47023;-69
2023/07/04 04:45:02;;;;;;;;;5.00;4.50;;;;;-148.87;40.76;49687.75;5049854;28;51387;-68
2023/07/04 04:47:32;;;;;;;;;5.00;5.00;;;;;-148.87;41.07;49685.75;5038450;28;45489;-68
2023/07/04 04:50:00;;;;;;;;;5.75;5.00;;;;;-148.87;40.93;49665.72;5057316;28;45264;-68
2023/07/04 04:52:29;;;;;;;;;6.25;6.00;;;;;-148.87;40.93;49681.75;5060352;28;45415;-68
2023/07/04 04:54:55;;;;;;;;;6.25;5.00;;;;;-148.87;40.71;49663.72;5060831;28;45429;-69
2023/07/04 04:57:21;;;;;;;;;6.00;5.00;;;;;-148.87;40.89;49673.72;5040825;28;45412;-68
2023/07/04 04:59:47;;;;;;;;;6.00;6.00;;;;;-148.87;41.03;49677.72;5060454;28;45296;-68
2023/07/04 05:02:13;;;;;;;;;7.50;6.00;;;;;-148.87;40.91;49653.72;5060021;28;46143;-68
2023/07/04 05:04:38;;;;;;;;;5.00;4.00;;;;;-148.87;40.87;49667.72;5040138;28;45316;-68
2023/07/04 05:07:04;;;;;;;;;7.25;5.75;;;;;-148.87;41.00;49657.72;5060020;28;45268;-68
2023/07/04 05:09:30;;;;;;;;;8.00;5.50;;;;;-148.87;40.90;49655.72;5059632;28;45381;-68
2023/07/04 05:11:55;;;;;;;;;5.00;4.00;;;;;-148.87;40.54;49641.72;5060839;28;45263;-68
2023/07/04 05:14:20;;;;;;;;;7.00;5.25;;;;;-148.87;40.44;49617.72;5073751;27;46114;-69
2023/07/04 05:16:46;;;;;;;;;7.50;6.00;;;;;-148.87;40.50;49605.72;5061784;28;45600;-68
2023/07/04 05:19:11;;;;;;;;;8.00;5.00;;;;;-148.87;40.46;49585.72;5057462;28;45407;-68
2023/07/04 05:21:36;;;;;;;;;4.75;3.75;;;;;-148.87;40.24;49563.72;5060399;28;46484;-68
2023/07/04 05:24:02;;;;;;;;;4.00;4.00;;;;;-148.87;40.55;49575.72;5060366;28;45216;-69
2023/07/04 05:26:28;;;;;;;;;5.25;3.25;;;;;-148.87;40.44;49583.72;5058795;28;45233;-68
2023/07/04 05:28:56;;;;;;;;;6.25;5.75;;;;;-148.87;40.51;49605.72;5053571;28;45681;-69
2023/07/04 05:31:24;;;;;;;;;6.00;5.25;;;;;-148.87;40.49;49621.72;5059732;28;45546;-69
2023/07/04 05:33:52;;;;;;;;;5.75;5.00;;;;;-148.87;40.71;49621.72;5043443;28;45858;-70
2023/07/04 05:36:21;;;;;;;;;8.25;6.00;;;;;-148.87;40.57;49635.72;5059707;28;45513;-69
2023/07/04 05:38:49;;;;;;;;;6.50;5.00;;;;;-148.87;40.94;49633.72;5057267;28;45965;-69
2023/07/04 05:41:17;;;;;;;;;4.00;4.00;;;;;-148.87;40.56;49617.72;5055364;28;46409;-67
2023/07/04 05:43:44;;;;;;;;;7.50;5.50;;;;;-148.87;40.58;49625.72;5055717;28;45344;-69
2023/07/04 05:46:11;;;;;;;;;5.25;5.00;;;;;-148.87;40.41;49609.72;5058939;28;45478;-68
2023/07/04 05:48:37;;;;;;;;;5.50;4.50;;;;;-148.87;40.47;49579.72;5059147;28;45310;-69
2023/07/04 05:51:06;;;;;;;;;3.50;2.75;;;;;-148.87;40.27;49543.72;5059304;28;45498;-68
2023/07/04 05:53:34;;;;;;;;;9.50;5.25;;;;;-148.87;40.35;49533.72;5057511;28;45544;-68
2023/07/04 05:56:10;;;;;;;;;7.00;6.50;;;;;-148.87;40.11;49467.72;5045262;28;45261;-69
2023/07/04 05:58:38;;;;;;;;;5.50;5.00;;;;;-148.87;39.82;49397.72;5063521;28;45518;-69
2023/07/04 06:01:23;;;;;;;;;7.25;4.25;;;;;-148.87;39.57;49273.69;5059069;28;45509;-68
2023/07/04 06:03:49;;;;;;;;;4.75;4.25;;;;;-148.87;39.26;49197.69;5041087;28;45293;-68
2023/07/04 06:06:30;;;;;;;;;5.25;4.00;;;;;-148.87;39.24;49141.69;5052719;28;45348;-69
2023/07/04 06:08:57;;;;;;;;;4.75;4.75;;;;;-148.87;39.02;49103.69;5053690;28;47300;-68
2023/07/04 06:11:26;;;;;;;;;4.25;3.75;;;;;-148.87;39.22;49123.69;5058653;28;45597;-81
2023/07/04 06:13:51;;;;;;;;;5.00;4.00;;;;;-148.87;39.23;49105.69;5057498;28;45531;-75
2023/07/04 06:16:17;;;;;;;;;4.50;3.75;;;;;-148.87;39.26;49155.69;5041822;28;45283;-74
2023/07/04 06:18:43;;;;;;;;;5.00;4.00;;;;;-148.87;39.50;49271.69;5061395;28;47496;-71
2023/07/04 06:21:13;;;;;;;;;5.00;3.75;;;;;-148.87;39.34;49181.69;5056295;28;46231;-70
2023/07/04 06:23:39;;;;;;;;;4.75;3.75;;;;;-148.87;39.66;49271.69;5059286;28;46319;-71
2023/07/04 06:26:06;;;;;;;;;5.75;5.00;;;;;-148.87;39.41;49225.69;5058429;28;46432;-68
2023/07/04 06:28:32;;;;;;;;;5.50;5.00;;;;;-148.87;39.25;49159.69;5058560;28;46964;-68
2023/07/04 06:30:57;;;;;;;;;5.25;4.00;;;;;-148.87;39.43;49197.69;5041985;28;47468;-67
2023/07/04 06:33:23;;;;;;;;;6.50;5.25;;;;;-148.87;39.16;49103.69;5056407;28;45409;-69
2023/07/04 06:35:49;;;;;;;;;5.00;4.00;;;;;-148.87;38.77;48885.69;5042374;28;45311;-67
2023/07/04 06:38:14;;;;;;;;;5.00;3.75;;;;;-148.87;38.42;48487.75;5057742;28;45397;-72
2023/07/04 06:40:40;;;;;;;;;4.50;3.25;;;;;-148.87;37.77;47967.84;5057285;28;46496;-72
2023/07/04 06:43:06;;;;;;;;;4.00;3.75;;;;;-148.87;37.33;47675.97;5060301;28;45549;-67
2023/07/04 06:45:33;;;;;;;;;4.00;4.00;;;;;-148.87;37.38;47725.94;5056766;28;45493;-67
2023/07/04 06:47:59;;;;;;;;;5.50;4.75;;;;;-148.87;37.35;47326.09;5055780;28;45522;-69
2023/07/04 06:50:24;;;;;;;;;7.25;4.75;;;;;-148.87;37.07;46904.31;5054260;28;45465;-70
2023/07/04 06:52:50;;;;;;;;;5.00;4.75;;;;;-148.87;36.80;46248.72;5055471;28;45428;-77
2023/07/04 06:55:15;;;;;;;;;4.00;4.00;;;;;-148.87;36.81;46380.63;5039854;28;45756;-67
2023/07/04 06:57:40;;;;;;;;;6.00;5.00;;;;;-148.87;36.34;45499.34;5055663;28;45269;-67
2023/07/04 07:00:06;;;;;;;;;2.50;2.00;;;;;-148.87;35.34;43985.03;5046454;28;46944;-68
2023/07/04 07:02:32;;;;;;;;;4.25;4.00;;;;;-148.87;35.73;44142.81;5054991;28;45943;-69
2023/07/04 07:04:58;;;;;;;;;3.50;3.00;;;;;-148.87;35.71;43943.06;5058884;28;45570;-70
2023/07/04 07:07:23;;;;;;;;;4.00;4.00;;;;;-148.87;35.21;43299.97;5069910;28;45769;-70
2023/07/04 07:09:48;;;;;;;;;4.00;4.00;;;;;-148.87;35.27;43409.81;5058114;28;46158;-71
2023/07/04 07:12:14;;;;;;;;;5.50;3.75;;;;;-148.87;35.19;42994.44;5064841;28;45441;-70
2023/07/04 07:14:39;;;;;;;;;5.25;4.50;;;;;-148.87;35.08;43008.41;5059782;28;45379;-68
2023/07/04 07:17:06;;;;;;;;;4.75;4.00;;;;;-148.87;34.71;42269.63;5058701;28;45449;-67
2023/07/04 07:19:32;;;;;;;;;4.50;3.25;;;;;-148.87;34.82;42052.00;5057846;28;45370;-68
2023/07/04 07:22:01;;;;;;;;;4.00;3.25;;;;;-148.87;34.77;42301.56;5054253;28;45511;-75
2023/07/04 07:24:30;;;;;;;;;3.00;2.25;;;;;-148.87;34.72;42217.72;5062453;28;45397;-67
2023/07/04 07:26:56;;;;;;;;;4.75;4.00;;;;;-148.87;34.89;42629.03;5059855;28;45577;-67
2023/07/04 07:29:22;;;;;;;;;2.00;2.00;;;;;-148.87;34.98;42764.81;5058155;28;45419;-67
2023/07/04 07:31:49;;;;;;;;;5.00;4.25;;;;;-148.87;35.09;42964.47;5057284;28;45504;-69
2023/07/04 07:34:15;;;;;;;;;5.00;5.00;;;;;-148.87;35.24;43365.88;5060568;28;45326;-72
2023/07/04 07:36:41;;;;;;;;;2.00;2.00;;;;;-148.87;35.14;43313.94;5058029;28;50696;-71
2023/07/04 07:39:10;;;;;;;;;5.75;3.25;;;;;-148.87;35.44;43831.22;5062668;28;46748;-71
2023/07/04 07:41:43;;;;;;;;;2.00;2.00;;;;;-148.87;35.55;44152.81;5069765;28;45399;-71
2023/07/04 07:44:09;;;;;;;;;4.25;3.25;;;;;-148.87;35.35;43721.38;5061060;28;45493;-72
2023/07/04 07:46:35;;;;;;;;;4.75;4.50;;;;;-148.87;35.33;43817.25;5060698;28;45452;-72
2023/07/04 07:49:01;;;;;;;;;5.75;4.25;;;;;-148.87;35.29;43533.63;5061108;28;45542;-72
2023/07/04 07:51:27;;;;;;;;;4.75;3.50;;;;;-148.87;35.15;43250.03;5043201;28;46135;-72
2023/07/04 07:53:53;;;;;;;;;3.25;3.00;;;;;-148.87;35.12;43130.22;5065982;28;45435;-72
2023/07/04 07:56:21;;;;;;;;;4.00;3.25;;;;;-148.87;34.63;42345.50;5060822;28;45928;-70
2023/07/04 07:58:47;;;;;;;;;5.00;4.00;;;;;-148.87;34.87;42419.38;5042726;28;48406;-72
2023/07/04 08:01:20;;;;;;;;;5.00;3.75;;;;;-148.87;33.99;41800.47;5061431;28;45612;-72
2023/07/04 08:03:46;;;;;;;;;3.25;3.00;;;;;-148.87;33.90;41730.59;5043667;28;45360;-72
2023/07/04 08:06:25;;;;;;;;;3.75;2.25;;;;;-148.87;33.65;41868.34;5061044;28;45476;-72
2023/07/04 08:08:53;;;;;;;;;6.00;3.00;;;;;-148.87;33.30;42012.09;5061196;28;45713;-72
2023/07/04 08:11:19;;;;;;;;;5.00;3.25;;;;;-148.87;33.05;42215.72;5060107;28;45667;-71
2023/07/04 08:13:45;;;;;;;;;4.00;3.00;;;;;-148.87;32.81;42866.63;5042833;28;45505;-69
2023/07/04 08:16:11;;;;;;;;;2.50;1.50;;;;;-148.87;32.43;43327.94;5044203;28;48032;-69
2023/07/04 08:18:36;;;;;;;;;3.25;3.00;;;;;-148.87;32.47;43178.16;5043343;28;46975;-69
2023/07/04 08:21:03;;;;;;;;;3.25;2.25;;;;;-148.87;32.39;43288.00;5060186;28;45219;-70
2023/07/04 08:23:30;;;;;;;;;1.25;1.00;;;;;-148.87;32.37;43527.66;5059329;28;45446;-70
2023/07/04 08:25:56;;;;;;;;;3.25;3.00;;;;;-148.87;32.12;43857.19;5061321;28;45354;-70
2023/07/04 08:28:22;;;;;;;;;3.25;3.00;;;;;-148.87;31.82;44208.75;5060575;28;45499;-70
2023/07/04 08:30:49;;;;;;;;;3.00;2.00;;;;;-148.87;31.15;46530.53;5060614;28;45450;-70
2023/07/04 08:33:17;;;;;;;;;2.00;2.00;;;;;-148.87;31.19;46206.75;5048595;28;45422;-70
2023/07/04 08:35:58;;;;;;;;;3.00;3.00;;;;;-148.87;31.08;46536.53;5061013;28;45445;-69
2023/07/04 08:38:23;;;;;;;;;2.25;1.75;;;;;-148.87;30.32;48399.75;5060464;28;46542;-70
2023/07/04 08:40:50;;;;;;;;;2.75;2.75;;;;;-148.87;30.47;48361.75;5043481;28;45411;-70
2023/07/04 08:43:27;;;;;;;;;3.75;2.00;;;;;-148.87;30.71;47552.00;5059684;28;45447;-70
2023/07/04 08:45:53;;;;;;;;;4.50;4.00;;;;;-148.87;30.81;47330.09;5059979;28;45503;-69
2023/07/04 08:48:21;;;;;;;;;4.50;3.00;;;;;-148.87;30.29;48531.75;5064578;28;45487;-70
2023/07/04 08:50:48;;;;;;;;;2.50;2.00;;;;;-148.87;30.06;48881.69;5043960;28;45490;-70
2023/07/04 08:53:18;;;;;;;;;4.25;3.25;;;;;-148.87;29.97;49297.69;5065495;28;45532;-70
2023/07/04 08:55:53;;;;;;;;;3.00;2.00;;;;;-148.87;30.02;48907.69;5059448;28;45479;-70
2023/07/04 08:58:21;;;;;;;;;3.00;3.00;;;;;-148.87;30.06;49099.69;5060162;28;45533;-70
2023/07/04 09:00:46;;;;;;;;;4.25;3.00;;;;;-148.87;29.83;49247.69;5059806;28;45593;-70
2023/07/04 09:03:18;;;;;;;;;4.50;3.50;;;;;-148.87;29.36;50179.84;5060463;28;45582;-71
2023/07/04 09:05:43;;;;;;;;;5.00;4.25;;;;;-148.87;29.02;50938.13;5059895;28;45282;-70
2023/07/04 09:08:30;;;;;;;;;3.00;2.75;;;;;-148.87;29.37;50752.03;5071958;28;45196;-70
2023/07/04 09:11:03;;;;;;;;;5.00;4.00;;;;;-148.87;28.79;51582.47;5060373;28;45363;-70
2023/07/04 09:13:38;;;;;;;;;2.75;2.00;;;;;-148.87;28.68;51818.63;5059848;28;45252;-71
2023/07/04 09:16:11;;;;;;;;;3.25;2.50;;;;;-148.87;28.08;52631.25;5042546;28;46252;-70
2023/07/04 09:18:45;;;;;;;;;3.00;2.25;;;;;-148.87;28.03;52689.31;5059937;28;45395;-70
2023/07/04 09:21:16;;;;;;;;;3.00;2.00;;;;;-148.87;27.09;53325.94;5057785;28;45693;-70
2023/07/04 09:23:44;;;;;;;;;3.00;2.00;;;;;-148.87;27.74;52981.59;5058135;28;45395;-71
2023/07/04 09:26:12;;;;;;;;;3.00;2.25;;;;;-148.87;27.74;53067.69;5060133;28;45422;-72
2023/07/04 09:28:42;;;;;;;;;2.75;2.75;;;;;-148.87;27.86;53047.66;5059768;28;45453;-71
2023/07/04 09:31:22;;;;;;;;;2.50;1.50;;;;;-148.87;27.92;53019.63;5058173;28;45277;-69
2023/07/04 09:33:52;;;;;;;;;2.75;2.75;;;;;-148.87;27.39;53291.91;5060468;28;45302;-70
2023/07/04 09:36:19;;;;;;;;;3.00;2.00;;;;;-148.87;27.39;53339.97;5068593;28;45449;-71
2023/07/04 09:38:51;;;;;;;;;7.25;6.75;;;;;-148.87;27.26;53480.09;5041593;28;48175;-71
2023/07/04 09:41:18;;;;;;;;;3.25;2.75;;;;;-148.87;27.16;53508.13;5053343;28;45499;-71
2023/07/04 09:43:43;;;;;;;;;3.00;3.00;;;;;-148.87;27.01;53660.31;5059686;28;45646;-70
2023/07/04 09:46:10;;;;;;;;;5.50;4.00;;;;;-148.87;26.99;53646.28;5059928;28;45256;-71
2023/07/04 09:48:35;;;;;;;;;4.50;3.00;;;;;-148.87;27.19;53688.34;5059296;28;46518;-71
2023/07/04 09:51:15;;;;;;;;;3.25;3.25;;;;;-148.87;26.96;53640.28;5059034;28;45174;-74
2023/07/04 09:53:40;;;;;;;;;3.50;2.75;;;;;-148.87;26.81;53734.41;5046354;28;45391;-71
2023/07/04 09:56:06;;;;;;;;;2.00;1.50;;;;;-148.87;27.09;53584.22;5059941;28;45354;-72
2023/07/04 09:58:31;;;;;;;;;2.25;0.75;;;;;-148.87;26.94;53584.22;5059865;28;45532;-71
2023/07/04 10:01:00;;;;;;;;;3.75;3.25;;;;;-148.87;26.88;53674.31;5059271;28;45716;-72
2023/07/04 10:03:26;;;;;;;;;2.00;1.00;;;;;-148.87;27.08;53702.34;5059439;28;45375;-72
2023/07/04 10:05:51;;;;;;;;;2.50;1.75;;;;;-148.87;26.99;53772.44;5058454;28;45252;-71
2023/07/04 10:08:17;;;;;;;;;5.00;3.25;;;;;-148.87;27.07;53676.34;5059168;28;45314;-72
2023/07/04 10:10:51;;;;;;;;;5.25;4.00;;;;;-148.87;26.99;53746.41;5062905;28;45288;-70
2023/07/04 10:13:45;;;;;;;;;1.75;1.25;;;;;-148.87;26.68;53802.47;5056222;28;45527;-72
2023/07/04 10:16:29;;;;;;;;;4.75;3.00;;;;;-148.87;26.48;53960.66;5031676;28;46179;-73
2023/07/04 10:19:09;;;;;;;;;3.50;2.75;;;;;-148.87;26.44;53970.69;5059420;28;45369;-72
2023/07/04 10:21:48;;;;;;;;;3.75;1.75;;;;;-148.87;26.46;53904.59;5039244;28;45368;-70
2023/07/04 10:24:20;;;;;;;;;3.50;3.00;;;;;-148.87;26.23;53996.72;5058442;28;45677;-70
2023/07/04 10:27:02;;;;;;;;;2.25;2.00;;;;;-148.87;26.23;54084.81;5062024;28;45422;-68
2023/07/04 10:29:36;;;;;;;;;3.00;2.00;;;;;-148.87;26.20;54126.88;5054950;28;46199;-72
2023/07/04 10:32:13;;;;;;;;;2.50;2.50;;;;;-148.87;26.16;54106.84;5057863;28;45506;-70
2023/07/04 10:34:40;;;;;;;;;3.00;2.00;;;;;-148.87;25.78;54154.91;5057594;28;46612;-74
2023/07/04 10:37:09;;;;;;;;;4.00;3.75;;;;;-148.87;25.82;54198.97;5057321;28;45471;-73
2023/07/04 10:39:38;;;;;;;;;2.25;2.25;;;;;-148.87;25.26;54277.06;5057600;28;46775;-68
2023/07/04 10:42:21;;;;;;;;;3.00;2.75;;;;;-148.87;25.33;54281.06;5056176;28;45442;-68
2023/07/04 10:44:52;;;;;;;;;5.25;4.00;;;;;-148.87;25.10;54325.13;5054874;28;45387;-68
2023/07/04 10:47:24;;;;;;;;;5.50;3.50;;;;;-148.87;25.32;54359.19;5035997;28;45577;-68
2023/07/04 10:49:55;;;;;;;;;4.00;4.00;;;;;-148.87;25.31;54325.13;5054387;28;45626;-67
2023/07/04 10:52:29;;;;;;;;;4.25;2.50;;;;;-148.87;24.53;54327.13;5071640;28;45727;-67
2023/07/04 10:54:54;;;;;;;;;5.00;4.25;;;;;-148.87;24.91;54347.16;5060228;28;45542;-67
2023/07/04 10:57:35;;;;;;;;;4.00;3.50;;;;;-148.87;24.94;54375.19;5057366;28;45679;-67
2023/07/04 11:00:13;;;;;;;;;3.75;2.50;;;;;-148.87;24.93;54373.19;5059106;28;46447;-67
2023/07/04 11:02:46;;;;;;;;;3.25;3.25;;;;;-148.87;24.84;54397.22;5059151;28;45427;-68
2023/07/04 11:05:22;;;;;;;;;3.00;3.00;;;;;-148.87;25.13;54363.19;5058922;28;45659;-69
2023/07/04 11:07:52;;;;;;;;;2.50;2.25;;;;;-148.87;24.87;54401.22;5056670;28;45571;-68
2023/07/04 11:10:23;;;;;;;;;4.00;3.00;;;;;-148.87;24.50;54393.22;5060122;28;46166;-68
2023/07/04 11:12:53;;;;;;;;;3.75;2.75;;;;;-148.87;24.33;54469.31;5061020;28;45449;-69
2023/07/04 11:15:35;;;;;;;;;3.00;3.00;;;;;-148.87;24.58;54497.38;5060980;28;45431;-69
2023/07/04 11:18:01;;;;;;;;;5.50;5.25;;;;;-148.87;24.32;54465.31;5061163;28;45602;-68
2023/07/04 11:20:49;;;;;;;;;4.50;3.25;;;;;-148.87;23.97;54455.31;5064748;28;46454;-68